Portada
METAR-TAF:

METAR-TAF

Aeroports :

Alice Springs, Austràlia

latitud: 23-48S, longitud: 133-53E, altitud: 545 m

Observació

L'informe es va fer fa 43 minuts, a les 19:00 UTC
Vent calma
Temperatura 14°C
Humitat 33%
Pressió 1009 hPa
Visibilitat 10 km o més

METAR: YBAS 141900Z AUTO 00000KT 9999 // NCD 14/M02 Q1009

Hora: 05:13 (19:43 UTC)

Pronòstic

L'informe es va fer fa 2 hores i 33 minuts, a les 17:10 UTC
Pronòstic vàlid del 14 a les 18 UTC al 15 a les 18 UTC
Vent 6 kt del Sud-Est
Visibilitat 10 km o més
sense núvols per sota de 1500 mi sense presència de cumulonimbus.
A partir de les 15 a les 0200 UTC
Vent 10 kt del Sud/Sud-Oest
Visibilitat 10 km o més
sense núvols per sota de 1500 mi sense presència de cumulonimbus.
A partir de les 15 a les 1200 UTC
Vent 6 kt del Est/Sud-Est
Visibilitat 10 km o més
sense núvols per sota de 1500 mi sense presència de cumulonimbus.

TAF: YBAS 141710Z 1418/1518 14006KT CAVOK FM150200 20010KT CAVOK FM151200 11006KT CAVOK

Observacions i pronòstics meteorològics de més de 4000 aeroports (METAR i TAF).

Les estacions disponibles són els punts grocs i vermells al mapa.

Posi el ratolí al punt desitjat per veure el nom de l'estació.

Feu clic per veure les observacions i els pronòstics meteorològics.

Per canviar el mapa: feu clic els botons verds amb una creu de color negre per apropar; al botó verd amb un guió per allunyar la imatge; o en les fletxes verdes per a mapes adjacents.


METAR-TAF: